Time;durP1;ratioP1;P1;durP2;ratioP2;P2;SDS_P1;SDS_P2;PMS_P1;PMS_P2;Temp;Humidity;BMP_temperature;BMP_pressure;BME280_temperature;BME280_humidity;BME280_pressure;Samples;Min_cycle;Max_cycle;Signal;HPM_P1;HPM_P2
2022/03/31 00:00:24;;;;;;;26.40;24.30;;;;;;;;;;4976736;28;20659;-84
2022/03/31 00:02:51;;;;;;;27.75;25.60;;;;;;;;;;4976682;28;20654;-85
2022/03/31 00:05:19;;;;;;;27.42;25.33;;;;;;;;;;4977075;28;20199;-84
2022/03/31 00:07:49;;;;;;;26.05;24.10;;;;;;;;;;4975938;28;20236;-84
2022/03/31 00:10:20;;;;;;;27.63;25.45;;;;;;;;;;4976306;28;20658;-84
2022/03/31 00:12:48;;;;;;;25.77;23.88;;;;;;;;;;4976843;28;20215;-82
2022/03/31 00:15:15;;;;;;;25.70;23.90;;;;;;;;;;4976226;28;20187;-83
2022/03/31 00:17:45;;;;;;;26.33;24.15;;;;;;;;;;4976572;28;20199;-83
2022/03/31 00:20:12;;;;;;;25.50;23.60;;;;;;;;;;4976484;28;20187;-83
2022/03/31 00:22:40;;;;;;;26.75;24.40;;;;;;;;;;4976275;28;20207;-83
2022/03/31 00:25:10;;;;;;;26.85;24.45;;;;;;;;;;4976390;28;20226;-84
2022/03/31 00:27:38;;;;;;;27.03;24.97;;;;;;;;;;4976120;28;20196;-82
2022/03/31 00:30:07;;;;;;;27.13;24.73;;;;;;;;;;4976369;28;20502;-83
2022/03/31 00:32:34;;;;;;;26.20;24.35;;;;;;;;;;4975978;28;20665;-84
2022/03/31 00:35:04;;;;;;;28.63;26.15;;;;;;;;;;4975764;28;20191;-83
2022/03/31 00:37:31;;;;;;;27.55;25.45;;;;;;;;;;4975779;28;20198;-84
2022/03/31 00:39:59;;;;;;;28.27;25.75;;;;;;;;;;4976155;28;20196;-83
2022/03/31 00:42:26;;;;;;;27.90;25.70;;;;;;;;;;4975726;28;20192;-84
2022/03/31 00:44:54;;;;;;;28.05;25.77;;;;;;;;;;4976070;28;20565;-83
2022/03/31 00:47:21;;;;;;;27.40;25.33;;;;;;;;;;4975550;28;20222;-83
2022/03/31 00:49:49;;;;;;;27.83;25.65;;;;;;;;;;4975766;28;20195;-83
2022/03/31 00:52:17;;;;;;;27.77;25.45;;;;;;;;;;4975721;28;20223;-83
2022/03/31 00:54:45;;;;;;;27.52;25.20;;;;;;;;;;4975609;28;20231;-83
2022/03/31 00:57:13;;;;;;;27.73;25.45;;;;;;;;;;4975625;28;20196;-84
2022/03/31 00:59:41;;;;;;;28.75;26.42;;;;;;;;;;4975948;28;20215;-84
2022/03/31 01:02:08;;;;;;;28.10;25.73;;;;;;;;;;4975468;28;20191;-83
2022/03/31 01:04:36;;;;;;;28.33;25.95;;;;;;;;;;4975676;28;20188;-84
2022/03/31 01:07:03;;;;;;;30.15;27.58;;;;;;;;;;4975403;28;20265;-83
2022/03/31 01:09:32;;;;;;;30.38;28.10;;;;;;;;;;4975708;28;20282;-83
2022/03/31 01:12:01;;;;;;;29.47;26.90;;;;;;;;;;4974614;28;20208;-83
2022/03/31 01:14:28;;;;;;;29.15;26.95;;;;;;;;;;4975543;28;20499;-83
2022/03/31 01:16:56;;;;;;;29.67;27.35;;;;;;;;;;4975191;28;20191;-83
2022/03/31 01:19:23;;;;;;;30.27;27.40;;;;;;;;;;4975250;28;20192;-83
2022/03/31 01:21:51;;;;;;;29.67;26.95;;;;;;;;;;4975065;28;20669;-82
2022/03/31 01:24:20;;;;;;;30.05;27.50;;;;;;;;;;4975424;28;20196;-82
2022/03/31 01:26:48;;;;;;;31.00;28.50;;;;;;;;;;4976040;28;20589;-83
2022/03/31 01:29:15;;;;;;;29.80;27.43;;;;;;;;;;4975329;28;20791;-83
2022/03/31 01:31:42;;;;;;;31.20;28.58;;;;;;;;;;4975136;28;20473;-83
2022/03/31 01:34:10;;;;;;;30.63;28.23;;;;;;;;;;4974699;28;20215;-84
2022/03/31 01:36:37;;;;;;;31.10;28.67;;;;;;;;;;4974764;28;20449;-83
2022/03/31 01:39:05;;;;;;;31.47;28.93;;;;;;;;;;4974893;28;20982;-83
2022/03/31 01:41:34;;;;;;;31.53;28.93;;;;;;;;;;4974840;28;20451;-83
2022/03/31 01:44:02;;;;;;;33.03;30.02;;;;;;;;;;4974598;28;20452;-84
2022/03/31 01:46:30;;;;;;;31.33;28.65;;;;;;;;;;4974629;28;20199;-83
2022/03/31 01:48:57;;;;;;;31.63;29.03;;;;;;;;;;4974701;28;20202;-83
2022/03/31 01:51:25;;;;;;;32.35;29.50;;;;;;;;;;4974911;28;20520;-83
2022/03/31 01:53:52;;;;;;;32.22;29.17;;;;;;;;;;4974517;28;20234;-84
2022/03/31 01:56:20;;;;;;;36.17;32.75;;;;;;;;;;4974548;28;20695;-83
2022/03/31 01:58:48;;;;;;;32.63;29.95;;;;;;;;;;4974248;28;20208;-83
2022/03/31 02:01:16;;;;;;;34.00;31.05;;;;;;;;;;4974500;28;20214;-83
2022/03/31 02:03:43;;;;;;;33.37;30.27;;;;;;;;;;4974608;28;20195;-83
2022/03/31 02:06:11;;;;;;;34.17;30.97;;;;;;;;;;4974376;28;20418;-83
2022/03/31 02:08:38;;;;;;;35.00;31.80;;;;;;;;;;4974361;28;20450;-83
2022/03/31 02:11:05;;;;;;;34.70;31.40;;;;;;;;;;4973583;28;20202;-82
2022/03/31 02:13:34;;;;;;;35.05;31.75;;;;;;;;;;4973990;28;20227;-83
2022/03/31 02:16:03;;;;;;;35.10;32.20;;;;;;;;;;4974369;28;20741;-83
2022/03/31 02:18:30;;;;;;;34.15;31.08;;;;;;;;;;4974519;28;20278;-84
2022/03/31 02:20:57;;;;;;;36.93;33.13;;;;;;;;;;4974123;28;20218;-83
2022/03/31 02:23:25;;;;;;;36.83;33.08;;;;;;;;;;4974164;28;20450;-84
2022/03/31 02:25:52;;;;;;;35.37;32.27;;;;;;;;;;4974311;28;20199;-84
2022/03/31 02:28:19;;;;;;;34.97;31.77;;;;;;;;;;4974434;28;20454;-84
2022/03/31 02:30:47;;;;;;;38.17;34.33;;;;;;;;;;4974161;28;20450;-83
2022/03/31 02:33:16;;;;;;;35.75;32.53;;;;;;;;;;4974281;28;20918;-83
2022/03/31 02:35:43;;;;;;;36.72;33.33;;;;;;;;;;4974503;28;20207;-83
2022/03/31 02:38:12;;;;;;;37.73;34.00;;;;;;;;;;4957185;28;20602;-84
2022/03/31 02:40:39;;;;;;;39.47;35.55;;;;;;;;;;4957087;28;20406;-83
2022/03/31 02:43:07;;;;;;;39.22;35.42;;;;;;;;;;4974307;28;20192;-83
2022/03/31 02:45:34;;;;;;;38.72;34.75;;;;;;;;;;4974219;28;20200;-83
2022/03/31 02:48:02;;;;;;;36.88;33.47;;;;;;;;;;4974321;28;20206;-84
2022/03/31 02:50:31;;;;;;;41.80;37.35;;;;;;;;;;4973910;28;20211;-83
2022/03/31 02:55:44;;;;;;;37.60;34.23;;;;;;;;;;4973961;28;20422;-84
2022/03/31 02:58:11;;;;;;;37.75;34.30;;;;;;;;;;4956673;28;20434;-83
2022/03/31 03:00:38;;;;;;;39.90;36.08;;;;;;;;;;4974423;28;20192;-84
2022/03/31 03:03:06;;;;;;;37.87;33.90;;;;;;;;;;4973773;28;20199;-83
2022/03/31 03:05:35;;;;;;;38.33;34.43;;;;;;;;;;4973911;28;20444;-83
2022/03/31 03:08:03;;;;;;;37.90;34.23;;;;;;;;;;4973461;28;20581;-83
2022/03/31 03:10:31;;;;;;;35.77;32.57;;;;;;;;;;4973782;28;20425;-83
2022/03/31 03:12:59;;;;;;;37.17;33.75;;;;;;;;;;4973747;28;20767;-83
2022/03/31 03:15:26;;;;;;;37.10;33.73;;;;;;;;;;4973986;28;20266;-83
2022/03/31 03:17:54;;;;;;;35.90;32.78;;;;;;;;;;4973894;28;20434;-83
2022/03/31 03:20:24;;;;;;;37.73;34.00;;;;;;;;;;4974022;28;20203;-84
2022/03/31 03:22:54;;;;;;;36.47;33.07;;;;;;;;;;4973746;28;20465;-84
2022/03/31 03:25:23;;;;;;;38.78;35.22;;;;;;;;;;4974067;28;20443;-83
2022/03/31 03:27:50;;;;;;;37.58;33.78;;;;;;;;;;4973787;28;20232;-84
2022/03/31 03:30:18;;;;;;;38.67;34.95;;;;;;;;;;4973716;28;20196;-83
2022/03/31 03:32:46;;;;;;;37.97;34.42;;;;;;;;;;4973760;28;20188;-83
2022/03/31 03:35:14;;;;;;;39.27;35.70;;;;;;;;;;4973847;28;20231;-83
2022/03/31 03:37:42;;;;;;;36.90;33.15;;;;;;;;;;4977498;28;20435;-84
2022/03/31 03:40:12;;;;;;;38.37;34.97;;;;;;;;;;4977212;28;20196;-84
2022/03/31 03:42:40;;;;;;;37.45;33.65;;;;;;;;;;4976919;28;20917;-83
2022/03/31 03:45:09;;;;;;;39.10;35.30;;;;;;;;;;4977180;28;20196;-83
2022/03/31 03:47:36;;;;;;;38.83;35.10;;;;;;;;;;4976679;28;20409;-84
2022/03/31 03:50:04;;;;;;;38.22;34.40;;;;;;;;;;4976858;28;20914;-82
2022/03/31 03:52:31;;;;;;;38.95;34.92;;;;;;;;;;4976972;28;20527;-83
2022/03/31 03:54:59;;;;;;;38.92;35.33;;;;;;;;;;4976844;28;20219;-82
2022/03/31 03:57:28;;;;;;;40.10;35.83;;;;;;;;;;4977152;28;20196;-83
2022/03/31 03:59:55;;;;;;;43.78;39.05;;;;;;;;;;4977452;28;20431;-83
2022/03/31 04:02:23;;;;;;;40.67;36.83;;;;;;;;;;4976941;28;20200;-83
2022/03/31 04:04:50;;;;;;;43.08;38.40;;;;;;;;;;4976609;28;20195;-83
2022/03/31 04:07:20;;;;;;;41.58;37.40;;;;;;;;;;4976493;28;20247;-83
2022/03/31 04:09:47;;;;;;;41.70;36.30;;;;;;;;;;4976481;28;20211;-83
2022/03/31 04:12:14;;;;;;;43.50;38.83;;;;;;;;;;4976492;28;20195;-84
2022/03/31 04:14:43;;;;;;;43.95;37.58;;;;;;;;;;4959228;28;20494;-83
2022/03/31 04:17:11;;;;;;;37.53;33.97;;;;;;;;;;4976412;28;20558;-84
2022/03/31 04:19:38;;;;;;;37.85;33.95;;;;;;;;;;4976645;28;20428;-83
2022/03/31 04:22:06;;;;;;;40.30;36.13;;;;;;;;;;4976564;28;20195;-83
2022/03/31 04:24:33;;;;;;;35.90;32.65;;;;;;;;;;4976413;28;20434;-83
2022/03/31 04:27:00;;;;;;;37.80;33.78;;;;;;;;;;4976150;28;20225;-83
2022/03/31 04:29:28;;;;;;;37.65;33.92;;;;;;;;;;4976203;28;20199;-83
2022/03/31 04:31:57;;;;;;;38.50;34.60;;;;;;;;;;4976327;28;20649;-82
2022/03/31 04:34:24;;;;;;;35.77;32.40;;;;;;;;;;4976023;28;20573;-83
2022/03/31 04:36:51;;;;;;;35.80;32.60;;;;;;;;;;4976267;28;20798;-84
2022/03/31 04:39:19;;;;;;;36.70;32.93;;;;;;;;;;4975861;28;20214;-83
2022/03/31 04:41:46;;;;;;;37.37;33.40;;;;;;;;;;4975815;28;20911;-83
2022/03/31 04:44:13;;;;;;;37.03;33.72;;;;;;;;;;4975869;28;20444;-83
2022/03/31 04:46:41;;;;;;;35.05;31.65;;;;;;;;;;4974945;28;20199;-83
2022/03/31 04:49:09;;;;;;;39.38;33.42;;;;;;;;;;4975482;28;20765;-83
2022/03/31 04:51:37;;;;;;;36.10;32.42;;;;;;;;;;4975690;28;20195;-83
2022/03/31 04:54:04;;;;;;;36.05;32.53;;;;;;;;;;4975524;28;20191;-84
2022/03/31 04:56:32;;;;;;;36.33;32.53;;;;;;;;;;4975527;28;20203;-84
2022/03/31 04:59:00;;;;;;;35.13;31.48;;;;;;;;;;4975957;28;20898;-83
2022/03/31 05:01:27;;;;;;;35.33;32.08;;;;;;;;;;4975785;28;20191;-83
2022/03/31 05:03:55;;;;;;;36.80;32.80;;;;;;;;;;4975767;28;20546;-83
2022/03/31 05:06:24;;;;;;;34.27;31.10;;;;;;;;;;4975318;28;20451;-84
2022/03/31 05:08:51;;;;;;;33.47;30.52;;;;;;;;;;4975731;28;20450;-83
2022/03/31 05:11:19;;;;;;;32.83;29.75;;;;;;;;;;4975591;28;20195;-84
2022/03/31 05:13:46;;;;;;;35.03;31.40;;;;;;;;;;4975569;28;20198;-83
2022/03/31 05:16:13;;;;;;;34.10;30.42;;;;;;;;;;4975269;28;20883;-83
2022/03/31 05:18:41;;;;;;;33.72;30.52;;;;;;;;;;4975443;28;20250;-84
2022/03/31 05:21:08;;;;;;;35.00;31.58;;;;;;;;;;4975124;28;20191;-84
2022/03/31 05:23:37;;;;;;;33.50;30.30;;;;;;;;;;4975368;28;20192;-82
2022/03/31 05:26:05;;;;;;;33.80;30.60;;;;;;;;;;4975050;28;20192;-83
2022/03/31 05:28:32;;;;;;;34.33;31.02;;;;;;;;;;4975054;28;20908;-84
2022/03/31 05:31:00;;;;;;;33.77;30.40;;;;;;;;;;4975423;28;20187;-83
2022/03/31 05:33:28;;;;;;;36.30;32.63;;;;;;;;;;4974934;28;20851;-83
2022/03/31 05:35:58;;;;;;;33.23;30.13;;;;;;;;;;4974748;28;20239;-84
2022/03/31 05:38:25;;;;;;;33.37;30.17;;;;;;;;;;4975299;28;20952;-85
2022/03/31 05:40:54;;;;;;;35.33;31.75;;;;;;;;;;4975908;28;20458;-85
2022/03/31 05:43:22;;;;;;;36.38;32.78;;;;;;;;;;4975366;28;20230;-83
2022/03/31 05:45:50;;;;;;;34.17;30.95;;;;;;;;;;4974725;28;20198;-83
2022/03/31 05:48:17;;;;;;;37.10;32.55;;;;;;;;;;4974869;28;20515;-83
2022/03/31 05:50:45;;;;;;;37.03;33.57;;;;;;;;;;4975154;28;20199;-85
2022/03/31 05:53:13;;;;;;;37.17;33.65;;;;;;;;;;4974949;28;20431;-85
2022/03/31 05:55:43;;;;;;;37.17;33.67;;;;;;;;;;4974893;28;20224;-84
2022/03/31 05:58:12;;;;;;;38.27;34.03;;;;;;;;;;4974473;28;20650;-85
2022/03/31 06:00:39;;;;;;;40.08;34.28;;;;;;;;;;4974393;28;20443;-84
2022/03/31 06:03:06;;;;;;;41.30;37.08;;;;;;;;;;4975160;28;20199;-84
2022/03/31 06:05:34;;;;;;;38.58;34.83;;;;;;;;;;4975095;28;20195;-85
2022/03/31 06:08:01;;;;;;;41.38;36.88;;;;;;;;;;4974692;28;20246;-84
2022/03/31 06:10:29;;;;;;;40.10;36.03;;;;;;;;;;4974478;28;20210;-84
2022/03/31 06:12:57;;;;;;;41.20;36.77;;;;;;;;;;4975026;28;20433;-84
2022/03/31 06:15:27;;;;;;;39.83;35.73;;;;;;;;;;4974625;28;20495;-84
2022/03/31 06:17:56;;;;;;;41.20;37.03;;;;;;;;;;4957382;28;20498;-84
2022/03/31 06:20:23;;;;;;;40.53;36.55;;;;;;;;;;4957107;28;20529;-86
2022/03/31 06:22:51;;;;;;;39.63;35.92;;;;;;;;;;4975114;28;20206;-88
2022/03/31 06:25:20;;;;;;;41.42;37.53;;;;;;;;;;4975078;28;20360;-84
2022/03/31 06:27:48;;;;;;;42.83;38.78;;;;;;;;;;4975413;28;20192;-87
2022/03/31 06:30:16;;;;;;;42.40;38.30;;;;;;;;;;4975506;28;20192;-87
2022/03/31 06:32:45;;;;;;;41.70;37.80;;;;;;;;;;4975541;28;20505;-87
2022/03/31 06:35:14;;;;;;;41.90;38.07;;;;;;;;;;4977562;28;20221;-89
2022/03/31 06:37:42;;;;;;;42.33;38.13;;;;;;;;;;4974768;28;20475;-88
2022/03/31 06:40:12;;;;;;;41.67;37.40;;;;;;;;;;4975043;28;20275;-83
2022/03/31 06:42:40;;;;;;;41.50;37.85;;;;;;;;;;4975025;28;20246;-87
2022/03/31 06:45:12;;;;;;;43.17;39.17;;;;;;;;;;4974821;28;20206;-86
2022/03/31 06:47:39;;;;;;;44.78;40.45;;;;;;;;;;4975217;28;20254;-87
2022/03/31 06:50:11;;;;;;;43.40;39.20;;;;;;;;;;4976798;28;20187;-88
2022/03/31 06:52:39;;;;;;;44.10;39.78;;;;;;;;;;4974883;28;20192;-86
2022/03/31 06:55:07;;;;;;;44.13;40.03;;;;;;;;;;4974908;28;20692;-87
2022/03/31 06:57:34;;;;;;;43.40;39.30;;;;;;;;;;4974580;28;20443;-87
2022/03/31 07:00:02;;;;;;;44.58;40.28;;;;;;;;;;4974655;28;20199;-87
2022/03/31 07:02:29;;;;;;;43.60;39.30;;;;;;;;;;4957782;28;20216;-87
2022/03/31 07:04:57;;;;;;;43.73;39.30;;;;;;;;;;4974942;28;20418;-87
2022/03/31 07:07:26;;;;;;;44.55;40.15;;;;;;;;;;4974507;28;20462;-86
2022/03/31 07:09:53;;;;;;;43.05;38.78;;;;;;;;;;4974882;28;20220;-87
2022/03/31 07:12:21;;;;;;;44.60;40.17;;;;;;;;;;4961317;28;20560;-86
2022/03/31 07:14:48;;;;;;;43.83;39.65;;;;;;;;;;4978369;28;20422;-87
2022/03/31 07:17:15;;;;;;;42.20;37.97;;;;;;;;;;4978446;28;20191;-87
2022/03/31 07:19:43;;;;;;;42.45;38.25;;;;;;;;;;4978665;28;20192;-87
2022/03/31 07:22:10;;;;;;;43.75;39.60;;;;;;;;;;4978576;28;20677;-88
2022/03/31 07:24:39;;;;;;;44.67;40.38;;;;;;;;;;4961048;28;20207;-87
2022/03/31 07:27:06;;;;;;;46.97;42.22;;;;;;;;;;4978230;28;20572;-87
2022/03/31 07:29:34;;;;;;;47.47;42.72;;;;;;;;;;4978207;28;20207;-87
2022/03/31 07:32:01;;;;;;;47.95;43.15;;;;;;;;;;4978696;28;20215;-87
2022/03/31 07:34:28;;;;;;;48.23;43.43;;;;;;;;;;4978428;28;20546;-87
2022/03/31 07:36:56;;;;;;;45.90;41.53;;;;;;;;;;4978124;28;20482;-88
2022/03/31 07:39:23;;;;;;;46.95;42.05;;;;;;;;;;4977828;28;20470;-88
2022/03/31 07:41:52;;;;;;;49.55;44.53;;;;;;;;;;4977928;28;20195;-89
2022/03/31 07:44:19;;;;;;;47.22;42.15;;;;;;;;;;4977826;28;20225;-88
2022/03/31 07:46:47;;;;;;;47.70;42.70;;;;;;;;;;4977808;28;20203;-89
2022/03/31 07:49:14;;;;;;;49.00;44.15;;;;;;;;;;4978055;28;20203;-88
2022/03/31 07:51:42;;;;;;;47.15;42.22;;;;;;;;;;4978000;28;20194;-88
2022/03/31 07:54:09;;;;;;;47.70;42.73;;;;;;;;;;4977711;28;20191;-88
2022/03/31 07:56:36;;;;;;;40.87;36.77;;;;;;;;;;4978010;28;20502;-88
2022/03/31 07:59:06;;;;;;;47.45;42.45;;;;;;;;;;4977859;28;20941;-88
2022/03/31 08:01:34;;;;;;;46.75;41.90;;;;;;;;;;4977682;28;20251;-88
2022/03/31 08:04:03;;;;;;;43.90;39.60;;;;;;;;;;4977439;28;20195;-89
2022/03/31 08:06:31;;;;;;;47.27;42.43;;;;;;;;;;4977065;28;20569;-88
2022/03/31 08:08:58;;;;;;;47.97;43.08;;;;;;;;;;4977433;28;20420;-88
2022/03/31 08:11:25;;;;;;;46.50;42.00;;;;;;;;;;4977422;28;20211;-88
2022/03/31 08:13:53;;;;;;;48.37;43.37;;;;;;;;;;4977505;28;20547;-89
2022/03/31 08:16:22;;;;;;;48.60;43.47;;;;;;;;;;4977599;28;20486;-88
2022/03/31 08:18:50;;;;;;;48.10;43.00;;;;;;;;;;4977563;28;20439;-89
2022/03/31 08:21:18;;;;;;;47.75;42.75;;;;;;;;;;4977199;28;20504;-88
2022/03/31 08:23:45;;;;;;;47.08;42.33;;;;;;;;;;4960050;28;20209;-88
2022/03/31 08:26:13;;;;;;;48.33;43.03;;;;;;;;;;4976793;28;20728;-88
2022/03/31 08:28:40;;;;;;;48.67;43.70;;;;;;;;;;4977324;28;20443;-89
2022/03/31 08:31:08;;;;;;;45.93;41.20;;;;;;;;;;4977141;28;20462;-87
2022/03/31 08:33:38;;;;;;;47.35;42.53;;;;;;;;;;4977070;28;20435;-87
2022/03/31 08:36:06;;;;;;;49.08;43.97;;;;;;;;;;4976847;28;20235;-90
2022/03/31 08:38:33;;;;;;;47.72;42.75;;;;;;;;;;4977313;28;20192;-88
2022/03/31 08:41:01;;;;;;;48.03;42.90;;;;;;;;;;4977099;28;20223;-88
2022/03/31 08:43:29;;;;;;;46.92;42.28;;;;;;;;;;4976909;28;20227;-87
2022/03/31 08:45:57;;;;;;;50.07;44.10;;;;;;;;;;4976677;28;20203;-87
2022/03/31 08:48:26;;;;;;;48.78;43.83;;;;;;;;;;4976607;28;20435;-87
2022/03/31 08:50:55;;;;;;;49.43;44.30;;;;;;;;;;4976984;28;20195;-88
2022/03/31 08:53:22;;;;;;;45.83;41.33;;;;;;;;;;4977100;28;21260;-88
2022/03/31 08:55:50;;;;;;;45.70;41.20;;;;;;;;;;4976932;28;20508;-87
2022/03/31 08:58:17;;;;;;;48.53;43.63;;;;;;;;;;4976639;28;20270;-87
2022/03/31 09:00:45;;;;;;;48.15;43.30;;;;;;;;;;4976348;28;20439;-88
2022/03/31 09:03:12;;;;;;;47.47;42.67;;;;;;;;;;4976850;28;20677;-88
2022/03/31 09:05:41;;;;;;;45.33;40.60;;;;;;;;;;4976672;28;20422;-88
2022/03/31 09:08:11;;;;;;;46.10;41.80;;;;;;;;;;4977113;28;20457;-88
2022/03/31 09:10:40;;;;;;;43.55;38.75;;;;;;;;;;4959260;28;20421;-90
2022/03/31 09:13:20;;;;;;;44.93;40.43;;;;;;;;;;4976039;28;20282;-89
2022/03/31 09:15:51;;;;;;;49.70;44.60;;;;;;;;;;4976418;28;20445;-88
2022/03/31 09:18:19;;;;;;;43.13;38.63;;;;;;;;;;4976227;28;20424;-88
2022/03/31 09:20:48;;;;;;;44.70;40.08;;;;;;;;;;4976432;28;20412;-89
2022/03/31 09:23:17;;;;;;;41.27;37.27;;;;;;;;;;4976459;28;20196;-90
2022/03/31 09:25:45;;;;;;;41.47;37.77;;;;;;;;;;4976506;28;20845;-88
2022/03/31 09:28:14;;;;;;;46.00;41.63;;;;;;;;;;4976227;28;20417;-87
2022/03/31 09:30:44;;;;;;;43.67;39.38;;;;;;;;;;4975824;28;20446;-90
2022/03/31 09:33:12;;;;;;;42.38;38.47;;;;;;;;;;4975291;28;20192;-90
2022/03/31 09:35:39;;;;;;;45.00;40.67;;;;;;;;;;4975848;28;20611;-90
2022/03/31 09:38:22;;;;;;;40.10;36.20;;;;;;;;;;4976157;28;20670;-88
2022/03/31 09:40:51;;;;;;;44.83;40.53;;;;;;;;;;4972751;28;20410;-90
2022/03/31 09:43:19;;;;;;;42.77;38.50;;;;;;;;;;4975785;28;20467;-88
2022/03/31 09:45:48;;;;;;;41.63;37.87;;;;;;;;;;4975952;28;20509;-89
2022/03/31 09:48:19;;;;;;;39.03;35.53;;;;;;;;;;4975764;28;20418;-89
2022/03/31 09:50:47;;;;;;;39.00;35.20;;;;;;;;;;4975858;28;20496;-90
2022/03/31 09:53:15;;;;;;;37.37;33.93;;;;;;;;;;4975878;28;20426;-91
2022/03/31 09:55:43;;;;;;;38.83;35.33;;;;;;;;;;4975687;28;20435;-90
2022/03/31 09:58:15;;;;;;;38.07;34.60;;;;;;;;;;4975418;28;20546;-87
2022/03/31 10:00:44;;;;;;;37.47;34.10;;;;;;;;;;4975460;28;20478;-90
2022/03/31 10:03:14;;;;;;;38.57;35.30;;;;;;;;;;4975618;28;20418;-91
2022/03/31 10:05:42;;;;;;;39.33;36.13;;;;;;;;;;4975389;28;20809;-90
2022/03/31 10:08:11;;;;;;;35.77;32.97;;;;;;;;;;4975418;28;20456;-90
2022/03/31 10:10:38;;;;;;;37.73;34.60;;;;;;;;;;4975606;28;20465;-88
2022/03/31 10:13:12;;;;;;;36.07;33.10;;;;;;;;;;4975250;28;20454;-89
2022/03/31 10:15:41;;;;;;;38.10;34.90;;;;;;;;;;4975151;28;21061;-90
2022/03/31 10:18:08;;;;;;;36.63;33.53;;;;;;;;;;4975203;28;20402;-89
2022/03/31 10:20:36;;;;;;;38.53;35.03;;;;;;;;;;4975593;28;20558;-92
2022/03/31 10:25:51;;;;;;;34.70;31.70;;;;;;;;;;4974482;28;20432;-84
2022/03/31 10:28:20;;;;;;;37.43;34.30;;;;;;;;;;4975217;28;20428;-88
2022/03/31 10:30:57;;;;;;;37.97;34.80;;;;;;;;;;4975230;28;20417;-92
2022/03/31 10:33:30;;;;;;;35.87;32.67;;;;;;;;;;4975667;28;20450;-90
2022/03/31 10:36:12;;;;;;;36.73;33.60;;;;;;;;;;4974908;28;20583;-92
2022/03/31 10:38:40;;;;;;;38.13;34.80;;;;;;;;;;4975446;28;20443;-90
2022/03/31 10:41:11;;;;;;;38.90;35.47;;;;;;;;;;4975300;28;20815;-91
2022/03/31 10:43:40;;;;;;;35.40;32.43;;;;;;;;;;4958878;28;20482;-93
2022/03/31 10:46:16;;;;;;;35.83;32.77;;;;;;;;;;4978692;28;20433;-91
2022/03/31 10:48:49;;;;;;;38.30;34.80;;;;;;;;;;4978963;28;20445;-91
2022/03/31 10:51:17;;;;;;;35.87;32.60;;;;;;;;;;4961721;28;20421;-91
2022/03/31 10:53:48;;;;;;;35.70;32.60;;;;;;;;;;4979065;28;20424;-91
2022/03/31 10:56:20;;;;;;;37.67;34.40;;;;;;;;;;4978800;28;20489;-88
2022/03/31 10:58:47;;;;;;;37.07;34.20;;;;;;;;;;4979403;28;20522;-90
2022/03/31 11:01:16;;;;;;;35.50;32.60;;;;;;;;;;4978837;28;20470;-93
2022/03/31 11:03:44;;;;;;;36.17;33.17;;;;;;;;;;4978876;28;20417;-91
2022/03/31 11:06:13;;;;;;;38.17;34.87;;;;;;;;;;4962035;28;20466;-90
2022/03/31 11:08:41;;;;;;;38.13;34.73;;;;;;;;;;4984435;28;20467;-96
2022/03/31 11:11:09;;;;;;;32.50;29.90;;;;;;;;;;4970559;28;20451;-95
2022/03/31 11:13:36;;;;;;;36.73;33.83;;;;;;;;;;4980298;28;20412;-86
2022/03/31 11:16:06;;;;;;;35.70;32.97;;;;;;;;;;4980350;28;20446;-94
2022/03/31 11:18:35;;;;;;;33.43;30.70;;;;;;;;;;4982373;28;20462;-94
2022/03/31 11:21:04;;;;;;;37.03;33.77;;;;;;;;;;4984103;28;20930;-93
2022/03/31 11:23:32;;;;;;;38.03;34.97;;;;;;;;;;4984013;28;20424;-89
2022/03/31 11:26:00;;;;;;;37.53;34.13;;;;;;;;;;4969554;28;20482;-87
2022/03/31 11:28:30;;;;;;;33.33;30.67;;;;;;;;;;4980460;28;20447;-85
2022/03/31 11:30:59;;;;;;;35.53;32.73;;;;;;;;;;4980231;28;20570;-86
2022/03/31 11:33:36;;;;;;;35.73;32.73;;;;;;;;;;4979720;28;20447;-85
2022/03/31 11:36:04;;;;;;;33.73;31.00;;;;;;;;;;4978813;28;20454;-86
2022/03/31 11:38:31;;;;;;;35.50;32.60;;;;;;;;;;4978781;28;20421;-86
2022/03/31 11:40:58;;;;;;;33.43;30.17;;;;;;;;;;4978817;28;20891;-89
2022/03/31 11:43:26;;;;;;;34.60;31.90;;;;;;;;;;4978570;28;20474;-89
2022/03/31 11:45:55;;;;;;;34.33;31.70;;;;;;;;;;4978826;28;20932;-88
2022/03/31 11:48:24;;;;;;;33.97;30.73;;;;;;;;;;4979785;28;20426;-90
2022/03/31 11:50:56;;;;;;;36.63;33.63;;;;;;;;;;4979077;28;20466;-90
2022/03/31 11:53:26;;;;;;;36.90;33.83;;;;;;;;;;4981871;28;20537;-91
2022/03/31 11:55:57;;;;;;;36.77;33.70;;;;;;;;;;4966123;28;20788;-95
2022/03/31 11:58:25;;;;;;;35.80;33.17;;;;;;;;;;4951550;28;20491;-92
2022/03/31 12:00:53;;;;;;;36.30;33.47;;;;;;;;;;4979853;28;20439;-92
2022/03/31 12:03:20;;;;;;;36.50;33.30;;;;;;;;;;4981734;28;20414;-92
2022/03/31 12:05:59;;;;;;;36.53;33.77;;;;;;;;;;4979829;28;20443;-92
2022/03/31 12:08:28;;;;;;;35.73;32.60;;;;;;;;;;4980553;28;20486;-93
2022/03/31 12:10:56;;;;;;;33.90;31.50;;;;;;;;;;4979541;28;20449;-94
2022/03/31 12:13:24;;;;;;;34.60;31.77;;;;;;;;;;4979181;28;20424;-92
2022/03/31 12:16:02;;;;;;;38.47;35.03;;;;;;;;;;4979017;28;20450;-94
2022/03/31 12:18:30;;;;;;;35.70;32.87;;;;;;;;;;4981167;28;20457;-93
2022/03/31 12:21:02;;;;;;;35.20;32.50;;;;;;;;;;4964516;28;20433;-93
2022/03/31 12:23:29;;;;;;;37.60;34.50;;;;;;;;;;4962104;28;20841;-93
2022/03/31 12:25:57;;;;;;;35.83;32.93;;;;;;;;;;4960701;28;20927;-93
2022/03/31 12:28:25;;;;;;;38.33;35.40;;;;;;;;;;4978504;28;20437;-93
2022/03/31 12:30:53;;;;;;;37.60;34.80;;;;;;;;;;4978346;28;20795;-93
2022/03/31 12:33:22;;;;;;;34.77;31.83;;;;;;;;;;4978486;28;20448;-93
2022/03/31 12:35:55;;;;;;;37.13;34.23;;;;;;;;;;4979427;28;20454;-91
2022/03/31 12:38:34;;;;;;;34.33;31.53;;;;;;;;;;4961891;28;20461;-93
2022/03/31 12:41:02;;;;;;;36.03;33.07;;;;;;;;;;4960714;28;20829;-93
2022/03/31 12:43:29;;;;;;;36.77;33.73;;;;;;;;;;4961193;28;20437;-93
2022/03/31 12:45:57;;;;;;;35.87;32.90;;;;;;;;;;4961805;28;20428;-91
2022/03/31 12:48:36;;;;;;;36.70;33.67;;;;;;;;;;4962967;28;20434;-96
2022/03/31 12:51:04;;;;;;;38.60;35.70;;;;;;;;;;4964819;28;20426;-91
2022/03/31 12:53:42;;;;;;;36.50;33.50;;;;;;;;;;4977672;28;20438;-91
2022/03/31 12:56:10;;;;;;;34.70;32.00;;;;;;;;;;4978528;28;20443;-93
2022/03/31 12:58:38;;;;;;;35.37;32.77;;;;;;;;;;4981401;28;20473;-95
2022/03/31 13:01:06;;;;;;;36.63;33.60;;;;;;;;;;4979058;28;20463;-88
2022/03/31 13:03:34;;;;;;;39.17;36.13;;;;;;;;;;4977270;28;20790;-88
2022/03/31 13:06:03;;;;;;;38.60;35.30;;;;;;;;;;4977585;28;20465;-87
2022/03/31 13:08:31;;;;;;;36.47;33.67;;;;;;;;;;4976415;28;20887;-91
2022/03/31 13:11:00;;;;;;;36.57;33.87;;;;;;;;;;4977175;28;20932;-91
2022/03/31 13:13:28;;;;;;;34.63;31.83;;;;;;;;;;4976250;28;20455;-91
2022/03/31 13:15:55;;;;;;;38.77;35.47;;;;;;;;;;4977174;28;20761;-91
2022/03/31 13:18:23;;;;;;;39.37;36.27;;;;;;;;;;4977812;28;20517;-92
2022/03/31 13:20:50;;;;;;;37.27;34.00;;;;;;;;;;4977133;28;20471;-92
2022/03/31 13:23:18;;;;;;;40.80;37.37;;;;;;;;;;4977874;28;20441;-93
2022/03/31 13:25:46;;;;;;;36.17;33.17;;;;;;;;;;4959723;28;20451;-92
2022/03/31 13:28:15;;;;;;;40.10;36.23;;;;;;;;;;4977550;28;20501;-92
2022/03/31 13:30:43;;;;;;;39.50;36.10;;;;;;;;;;4977746;28;20453;-93
2022/03/31 13:33:10;;;;;;;38.87;35.63;;;;;;;;;;4976062;28;20424;-94
2022/03/31 13:35:37;;;;;;;37.83;34.73;;;;;;;;;;4976609;28;20465;-93
2022/03/31 13:38:05;;;;;;;36.67;33.53;;;;;;;;;;4977065;28;20476;-92
2022/03/31 13:40:40;;;;;;;39.60;35.97;;;;;;;;;;5098914;27;1597004;-93
2022/03/31 13:43:08;;;;;;;36.90;33.93;;;;;;;;;;5133423;28;20218;-92
2022/03/31 13:45:35;;;;;;;32.87;30.27;;;;;;;;;;5132582;28;20921;-93
2022/03/31 13:48:02;;;;;;;36.70;33.70;;;;;;;;;;5132709;28;20448;-94
2022/03/31 13:50:30;;;;;;;33.33;31.00;;;;;;;;;;5134091;28;20434;-94
2022/03/31 13:55:43;;;;;;;36.23;33.43;;;;;;;;;;5132720;28;20465;-82
2022/03/31 14:01:23;;;;;;;33.07;30.30;;;;;;;;;;5113604;28;20934;-92
2022/03/31 14:03:54;;;;;;;32.53;30.08;;;;;;;;;;5113638;28;20435;-93
2022/03/31 14:06:22;;;;;;;34.53;32.10;;;;;;;;;;5117870;28;20210;-95
2022/03/31 14:08:50;;;;;;;32.80;30.10;;;;;;;;;;5116404;28;20447;-94
2022/03/31 14:11:19;;;;;;;32.03;29.43;;;;;;;;;;5116610;28;20412;-95
2022/03/31 14:13:47;;;;;;;30.23;27.92;;;;;;;;;;5116877;28;20457;-95
2022/03/31 14:16:15;;;;;;;32.67;29.87;;;;;;;;;;5116106;28;20640;-95
2022/03/31 14:18:44;;;;;;;33.00;30.67;;;;;;;;;;5115546;28;20455;-95
2022/03/31 14:21:12;;;;;;;31.87;29.57;;;;;;;;;;5115344;28;20980;-94
2022/03/31 14:23:41;;;;;;;30.70;28.67;;;;;;;;;;5113990;28;20428;-95
2022/03/31 14:26:10;;;;;;;30.43;28.23;;;;;;;;;;5096433;28;20427;-94
2022/03/31 14:28:40;;;;;;;32.80;30.43;;;;;;;;;;5114550;28;20929;-94
2022/03/31 14:31:08;;;;;;;32.13;29.93;;;;;;;;;;5116037;28;20411;-95
2022/03/31 14:33:36;;;;;;;30.80;28.70;;;;;;;;;;5114482;28;20754;-93